sensor_id;sensor_type;location;lat;lon;timestamp;P1;durP1;ratioP1;P2;durP2;ratioP2
43823;SDS011;29470;53.550;9.926;2023-06-10T00:01:15;11.45;;;4.63;;
43823;SDS011;29470;53.550;9.926;2023-06-10T00:06:20;9.48;;;4.50;;
43823;SDS011;29470;53.550;9.926;2023-06-10T00:11:25;8.75;;;4.47;;
43823;SDS011;29470;53.550;9.926;2023-06-10T00:16:28;11.38;;;4.70;;
43823;SDS011;29470;53.550;9.926;2023-06-10T00:21:33;9.90;;;4.53;;
43823;SDS011;29470;53.550;9.926;2023-06-10T00:26:38;11.73;;;4.72;;
43823;SDS011;29470;53.550;9.926;2023-06-10T00:31:43;10.85;;;4.65;;
43823;SDS011;29470;53.550;9.926;2023-06-10T00:36:48;12.45;;;4.80;;
43823;SDS011;29470;53.550;9.926;2023-06-10T00:41:51;10.68;;;4.45;;
43823;SDS011;29470;53.550;9.926;2023-06-10T00:46:54;8.20;;;3.83;;
43823;SDS011;29470;53.550;9.926;2023-06-10T00:51:59;10.98;;;3.72;;
43823;SDS011;29470;53.550;9.926;2023-06-10T00:57:02;10.98;;;3.63;;
43823;SDS011;29470;53.550;9.926;2023-06-10T01:02:05;8.93;;;3.90;;
43823;SDS011;29470;53.550;9.926;2023-06-10T01:07:12;7.43;;;3.33;;
43823;SDS011;29470;53.550;9.926;2023-06-10T01:12:26;9.35;;;3.90;;
43823;SDS011;29470;53.550;9.926;2023-06-10T01:17:37;7.93;;;3.63;;
43823;SDS011;29470;53.550;9.926;2023-06-10T01:22:55;9.73;;;3.67;;
43823;SDS011;29470;53.550;9.926;2023-06-10T01:28:01;8.35;;;3.28;;
43823;SDS011;29470;53.550;9.926;2023-06-10T01:33:07;8.60;;;3.10;;
43823;SDS011;29470;53.550;9.926;2023-06-10T01:38:14;7.65;;;3.20;;
43823;SDS011;29470;53.550;9.926;2023-06-10T01:43:20;9.57;;;3.60;;
43823;SDS011;29470;53.550;9.926;2023-06-10T01:48:23;7.72;;;3.22;;
43823;SDS011;29470;53.550;9.926;2023-06-10T01:53:27;8.00;;;2.92;;
43823;SDS011;29470;53.550;9.926;2023-06-10T01:58:30;7.07;;;3.03;;
43823;SDS011;29470;53.550;9.926;2023-06-10T02:03:33;7.25;;;3.35;;
43823;SDS011;29470;53.550;9.926;2023-06-10T02:08:37;8.52;;;3.50;;
43823;SDS011;29470;53.550;9.926;2023-06-10T02:13:40;8.27;;;2.63;;
43823;SDS011;29470;53.550;9.926;2023-06-10T02:18:43;6.22;;;2.90;;
43823;SDS011;29470;53.550;9.926;2023-06-10T02:23:49;9.02;;;3.15;;
43823;SDS011;29470;53.550;9.926;2023-06-10T02:28:51;7.32;;;2.70;;
43823;SDS011;29470;53.550;9.926;2023-06-10T02:33:55;8.15;;;2.45;;
43823;SDS011;29470;53.550;9.926;2023-06-10T02:39:00;6.50;;;2.13;;
43823;SDS011;29470;53.550;9.926;2023-06-10T02:44:04;9.35;;;2.38;;
43823;SDS011;29470;53.550;9.926;2023-06-10T02:49:07;8.55;;;2.42;;
43823;SDS011;29470;53.550;9.926;2023-06-10T02:54:12;5.63;;;2.03;;
43823;SDS011;29470;53.550;9.926;2023-06-10T02:59:15;9.65;;;2.70;;
43823;SDS011;29470;53.550;9.926;2023-06-10T03:04:18;6.32;;;2.75;;
43823;SDS011;29470;53.550;9.926;2023-06-10T03:09:31;5.85;;;2.10;;
43823;SDS011;29470;53.550;9.926;2023-06-10T03:14:35;7.20;;;2.70;;
43823;SDS011;29470;53.550;9.926;2023-06-10T03:19:40;7.63;;;2.50;;
43823;SDS011;29470;53.550;9.926;2023-06-10T03:24:44;7.85;;;2.70;;
43823;SDS011;29470;53.550;9.926;2023-06-10T03:29:48;6.13;;;2.28;;
43823;SDS011;29470;53.550;9.926;2023-06-10T03:34:51;6.60;;;2.20;;
43823;SDS011;29470;53.550;9.926;2023-06-10T03:40:01;7.18;;;2.33;;
43823;SDS011;29470;53.550;9.926;2023-06-10T03:45:07;7.18;;;1.88;;
43823;SDS011;29470;53.550;9.926;2023-06-10T03:50:11;6.43;;;2.33;;
43823;SDS011;29470;53.550;9.926;2023-06-10T03:55:18;6.97;;;2.38;;
43823;SDS011;29470;53.550;9.926;2023-06-10T04:00:23;7.63;;;2.25;;
43823;SDS011;29470;53.550;9.926;2023-06-10T04:05:27;8.40;;;2.00;;
43823;SDS011;29470;53.550;9.926;2023-06-10T04:10:32;6.32;;;2.40;;
43823;SDS011;29470;53.550;9.926;2023-06-10T04:15:37;6.65;;;1.98;;
43823;SDS011;29470;53.550;9.926;2023-06-10T04:20:43;7.28;;;1.90;;
43823;SDS011;29470;53.550;9.926;2023-06-10T04:25:49;4.15;;;1.92;;
43823;SDS011;29470;53.550;9.926;2023-06-10T04:30:52;7.88;;;2.35;;
43823;SDS011;29470;53.550;9.926;2023-06-10T04:35:56;5.15;;;1.70;;
43823;SDS011;29470;53.550;9.926;2023-06-10T04:41:03;7.13;;;2.17;;
43823;SDS011;29470;53.550;9.926;2023-06-10T04:46:08;6.32;;;2.03;;
43823;SDS011;29470;53.550;9.926;2023-06-10T04:51:12;6.07;;;1.88;;
43823;SDS011;29470;53.550;9.926;2023-06-10T04:56:17;6.57;;;2.28;;
43823;SDS011;29470;53.550;9.926;2023-06-10T05:01:20;7.22;;;1.90;;
43823;SDS011;29470;53.550;9.926;2023-06-10T05:06:22;5.75;;;1.90;;
43823;SDS011;29470;53.550;9.926;2023-06-10T05:11:27;8.98;;;2.60;;
43823;SDS011;29470;53.550;9.926;2023-06-10T05:16:30;7.55;;;2.05;;
43823;SDS011;29470;53.550;9.926;2023-06-10T05:21:33;7.22;;;1.90;;
43823;SDS011;29470;53.550;9.926;2023-06-10T05:26:37;10.35;;;2.22;;
43823;SDS011;29470;53.550;9.926;2023-06-10T05:31:40;7.72;;;2.13;;
43823;SDS011;29470;53.550;9.926;2023-06-10T05:36:43;7.28;;;2.10;;
43823;SDS011;29470;53.550;9.926;2023-06-10T05:41:48;6.53;;;2.17;;
43823;SDS011;29470;53.550;9.926;2023-06-10T05:46:51;6.40;;;1.77;;
43823;SDS011;29470;53.550;9.926;2023-06-10T05:51:53;7.05;;;2.00;;
43823;SDS011;29470;53.550;9.926;2023-06-10T05:56:58;3.50;;;1.75;;
43823;SDS011;29470;53.550;9.926;2023-06-10T06:02:01;6.45;;;1.90;;
43823;SDS011;29470;53.550;9.926;2023-06-10T06:07:04;8.60;;;2.08;;
43823;SDS011;29470;53.550;9.926;2023-06-10T06:12:09;5.65;;;2.10;;
43823;SDS011;29470;53.550;9.926;2023-06-10T06:17:12;8.20;;;2.15;;
43823;SDS011;29470;53.550;9.926;2023-06-10T06:22:15;6.63;;;2.00;;
43823;SDS011;29470;53.550;9.926;2023-06-10T06:27:23;7.72;;;1.95;;
43823;SDS011;29470;53.550;9.926;2023-06-10T06:32:25;6.90;;;2.13;;
43823;SDS011;29470;53.550;9.926;2023-06-10T06:37:29;7.18;;;2.13;;
43823;SDS011;29470;53.550;9.926;2023-06-10T06:47:57;4.90;;;1.92;;
43823;SDS011;29470;53.550;9.926;2023-06-10T06:53:00;7.40;;;1.90;;
43823;SDS011;29470;53.550;9.926;2023-06-10T06:58:04;6.65;;;1.90;;
43823;SDS011;29470;53.550;9.926;2023-06-10T07:03:07;5.43;;;2.13;;
43823;SDS011;29470;53.550;9.926;2023-06-10T07:08:10;5.70;;;1.95;;
43823;SDS011;29470;53.550;9.926;2023-06-10T07:13:14;5.93;;;2.25;;
43823;SDS011;29470;53.550;9.926;2023-06-10T07:18:17;4.20;;;1.90;;
43823;SDS011;29470;53.550;9.926;2023-06-10T07:23:20;4.90;;;2.00;;
43823;SDS011;29470;53.550;9.926;2023-06-10T07:28:24;5.45;;;2.17;;
43823;SDS011;29470;53.550;9.926;2023-06-10T07:33:28;5.93;;;2.40;;
43823;SDS011;29470;53.550;9.926;2023-06-10T07:38:30;6.45;;;2.00;;
43823;SDS011;29470;53.550;9.926;2023-06-10T07:43:35;5.95;;;2.08;;
43823;SDS011;29470;53.550;9.926;2023-06-10T07:48:38;7.70;;;1.75;;
43823;SDS011;29470;53.550;9.926;2023-06-10T07:53:41;5.07;;;1.92;;
43823;SDS011;29470;53.550;9.926;2023-06-10T07:58:45;5.43;;;2.20;;
43823;SDS011;29470;53.550;9.926;2023-06-10T08:03:48;4.68;;;2.10;;
43823;SDS011;29470;53.550;9.926;2023-06-10T08:08:51;6.22;;;2.30;;
43823;SDS011;29470;53.550;9.926;2023-06-10T08:13:56;4.25;;;2.40;;
43823;SDS011;29470;53.550;9.926;2023-06-10T08:18:59;6.53;;;2.20;;
43823;SDS011;29470;53.550;9.926;2023-06-10T08:24:02;5.25;;;2.40;;
43823;SDS011;29470;53.550;9.926;2023-06-10T08:29:06;7.38;;;2.47;;
43823;SDS011;29470;53.550;9.926;2023-06-10T08:34:09;7.70;;;2.58;;
43823;SDS011;29470;53.550;9.926;2023-06-10T08:39:13;6.03;;;2.42;;
43823;SDS011;29470;53.550;9.926;2023-06-10T08:44:22;7.15;;;2.63;;
43823;SDS011;29470;53.550;9.926;2023-06-10T08:49:30;7.18;;;2.70;;
43823;SDS011;29470;53.550;9.926;2023-06-10T08:54:36;8.13;;;2.58;;
43823;SDS011;29470;53.550;9.926;2023-06-10T08:59:44;8.52;;;2.88;;
43823;SDS011;29470;53.550;9.926;2023-06-10T09:04:47;8.63;;;3.05;;
43823;SDS011;29470;53.550;9.926;2023-06-10T09:09:52;5.20;;;2.45;;
43823;SDS011;29470;53.550;9.926;2023-06-10T09:14:58;6.90;;;2.92;;
43823;SDS011;29470;53.550;9.926;2023-06-10T09:20:04;7.80;;;2.90;;
43823;SDS011;29470;53.550;9.926;2023-06-10T09:25:12;8.90;;;3.13;;
43823;SDS011;29470;53.550;9.926;2023-06-10T09:30:27;7.93;;;2.97;;
43823;SDS011;29470;53.550;9.926;2023-06-10T09:35:31;7.93;;;3.13;;
43823;SDS011;29470;53.550;9.926;2023-06-10T09:40:34;6.30;;;3.15;;
43823;SDS011;29470;53.550;9.926;2023-06-10T09:45:52;6.43;;;2.80;;
43823;SDS011;29470;53.550;9.926;2023-06-10T09:50:58;10.52;;;3.40;;
43823;SDS011;29470;53.550;9.926;2023-06-10T09:56:01;8.48;;;3.00;;
43823;SDS011;29470;53.550;9.926;2023-06-10T10:01:06;6.00;;;2.78;;
43823;SDS011;29470;53.550;9.926;2023-06-10T10:06:09;7.95;;;3.22;;
43823;SDS011;29470;53.550;9.926;2023-06-10T10:11:12;12.82;;;3.80;;
43823;SDS011;29470;53.550;9.926;2023-06-10T10:16:19;8.13;;;3.30;;
43823;SDS011;29470;53.550;9.926;2023-06-10T10:21:24;9.13;;;3.17;;
43823;SDS011;29470;53.550;9.926;2023-06-10T10:26:29;6.15;;;3.10;;
43823;SDS011;29470;53.550;9.926;2023-06-10T10:31:36;9.05;;;3.65;;
43823;SDS011;29470;53.550;9.926;2023-06-10T10:36:41;6.90;;;3.33;;
43823;SDS011;29470;53.550;9.926;2023-06-10T10:41:44;5.97;;;2.90;;
43823;SDS011;29470;53.550;9.926;2023-06-10T10:46:50;6.30;;;3.30;;
43823;SDS011;29470;53.550;9.926;2023-06-10T10:51:56;7.22;;;3.03;;
43823;SDS011;29470;53.550;9.926;2023-06-10T10:57:10;7.85;;;3.38;;
43823;SDS011;29470;53.550;9.926;2023-06-10T11:02:19;7.53;;;3.55;;
43823;SDS011;29470;53.550;9.926;2023-06-10T11:07:37;6.28;;;3.40;;
43823;SDS011;29470;53.550;9.926;2023-06-10T11:12:40;7.43;;;3.47;;
43823;SDS011;29470;53.550;9.926;2023-06-10T11:18:11;6.38;;;3.20;;
43823;SDS011;29470;53.550;9.926;2023-06-10T11:23:26;10.57;;;3.60;;
43823;SDS011;29470;53.550;9.926;2023-06-10T11:28:42;8.63;;;3.38;;
43823;SDS011;29470;53.550;9.926;2023-06-10T11:34:06;7.32;;;3.90;;
43823;SDS011;29470;53.550;9.926;2023-06-10T11:39:09;8.15;;;3.85;;
43823;SDS011;29470;53.550;9.926;2023-06-10T11:44:13;6.45;;;3.85;;
43823;SDS011;29470;53.550;9.926;2023-06-10T11:49:21;7.35;;;3.72;;
43823;SDS011;29470;53.550;9.926;2023-06-10T11:54:25;7.07;;;3.85;;
43823;SDS011;29470;53.550;9.926;2023-06-10T11:59:28;5.72;;;4.05;;
43823;SDS011;29470;53.550;9.926;2023-06-10T12:04:32;8.93;;;4.05;;
43823;SDS011;29470;53.550;9.926;2023-06-10T12:09:35;9.10;;;5.05;;
43823;SDS011;29470;53.550;9.926;2023-06-10T12:14:51;8.70;;;4.00;;
43823;SDS011;29470;53.550;9.926;2023-06-10T12:20:00;7.15;;;4.40;;
43823;SDS011;29470;53.550;9.926;2023-06-10T12:25:06;7.30;;;4.30;;
43823;SDS011;29470;53.550;9.926;2023-06-10T12:30:10;11.13;;;4.90;;
43823;SDS011;29470;53.550;9.926;2023-06-10T12:35:23;11.32;;;5.22;;
43823;SDS011;29470;53.550;9.926;2023-06-10T12:40:29;8.03;;;4.50;;
43823;SDS011;29470;53.550;9.926;2023-06-10T12:45:33;11.23;;;4.70;;
43823;SDS011;29470;53.550;9.926;2023-06-10T12:50:39;9.82;;;4.90;;
43823;SDS011;29470;53.550;9.926;2023-06-10T12:55:43;11.15;;;4.57;;
43823;SDS011;29470;53.550;9.926;2023-06-10T13:00:47;8.95;;;4.70;;
43823;SDS011;29470;53.550;9.926;2023-06-10T13:05:51;7.30;;;4.47;;
43823;SDS011;29470;53.550;9.926;2023-06-10T13:10:54;7.45;;;4.72;;
43823;SDS011;29470;53.550;9.926;2023-06-10T13:15:57;8.63;;;5.35;;
43823;SDS011;29470;53.550;9.926;2023-06-10T13:21:04;7.28;;;4.72;;
43823;SDS011;29470;53.550;9.926;2023-06-10T13:26:07;9.68;;;4.63;;
43823;SDS011;29470;53.550;9.926;2023-06-10T13:31:10;9.25;;;5.07;;
43823;SDS011;29470;53.550;9.926;2023-06-10T13:36:15;6.90;;;4.55;;
43823;SDS011;29470;53.550;9.926;2023-06-10T13:41:18;8.90;;;4.80;;
43823;SDS011;29470;53.550;9.926;2023-06-10T13:46:20;9.75;;;4.45;;
43823;SDS011;29470;53.550;9.926;2023-06-10T13:51:26;8.10;;;4.70;;
43823;SDS011;29470;53.550;9.926;2023-06-10T13:56:29;7.03;;;4.13;;
43823;SDS011;29470;53.550;9.926;2023-06-10T14:01:31;8.40;;;3.90;;
43823;SDS011;29470;53.550;9.926;2023-06-10T14:06:36;8.43;;;3.75;;
43823;SDS011;29470;53.550;9.926;2023-06-10T14:11:39;11.60;;;4.30;;
43823;SDS011;29470;53.550;9.926;2023-06-10T14:16:42;7.90;;;3.40;;
43823;SDS011;29470;53.550;9.926;2023-06-10T14:21:47;8.77;;;3.72;;
43823;SDS011;29470;53.550;9.926;2023-06-10T14:26:52;8.52;;;3.47;;
43823;SDS011;29470;53.550;9.926;2023-06-10T14:31:55;10.18;;;3.58;;
43823;SDS011;29470;53.550;9.926;2023-06-10T14:36:59;8.65;;;3.58;;
43823;SDS011;29470;53.550;9.926;2023-06-10T14:42:04;11.93;;;3.55;;
43823;SDS011;29470;53.550;9.926;2023-06-10T14:47:08;7.38;;;3.20;;
43823;SDS011;29470;53.550;9.926;2023-06-10T14:52:12;13.82;;;5.22;;
43823;SDS011;29470;53.550;9.926;2023-06-10T14:57:15;8.65;;;3.75;;
43823;SDS011;29470;53.550;9.926;2023-06-10T15:02:18;11.30;;;4.22;;
43823;SDS011;29470;53.550;9.926;2023-06-10T15:07:22;8.32;;;3.05;;
43823;SDS011;29470;53.550;9.926;2023-06-10T15:12:27;10.15;;;3.90;;
43823;SDS011;29470;53.550;9.926;2023-06-10T15:17:30;10.45;;;3.83;;
43823;SDS011;29470;53.550;9.926;2023-06-10T15:22:34;8.30;;;3.90;;
43823;SDS011;29470;53.550;9.926;2023-06-10T15:27:37;7.15;;;3.30;;
43823;SDS011;29470;53.550;9.926;2023-06-10T15:32:40;10.52;;;3.40;;
43823;SDS011;29470;53.550;9.926;2023-06-10T15:37:44;8.02;;;3.70;;
43823;SDS011;29470;53.550;9.926;2023-06-10T15:42:47;6.35;;;3.40;;
43823;SDS011;29470;53.550;9.926;2023-06-10T15:47:50;7.57;;;3.10;;
43823;SDS011;29470;53.550;9.926;2023-06-10T15:52:55;5.75;;;3.20;;
43823;SDS011;29470;53.550;9.926;2023-06-10T15:57:57;11.27;;;3.53;;
43823;SDS011;29470;53.550;9.926;2023-06-10T16:03:01;9.82;;;3.50;;
43823;SDS011;29470;53.550;9.926;2023-06-10T16:08:06;9.20;;;3.65;;
43823;SDS011;29470;53.550;9.926;2023-06-10T16:13:09;9.15;;;3.83;;
43823;SDS011;29470;53.550;9.926;2023-06-10T16:18:11;7.72;;;3.35;;
43823;SDS011;29470;53.550;9.926;2023-06-10T16:23:16;8.52;;;3.60;;
43823;SDS011;29470;53.550;9.926;2023-06-10T16:28:19;6.20;;;3.47;;
43823;SDS011;29470;53.550;9.926;2023-06-10T16:33:21;13.70;;;4.63;;
43823;SDS011;29470;53.550;9.926;2023-06-10T16:38:26;9.68;;;3.55;;
43823;SDS011;29470;53.550;9.926;2023-06-10T16:43:29;8.70;;;3.95;;
43823;SDS011;29470;53.550;9.926;2023-06-10T16:48:31;7.90;;;3.30;;
43823;SDS011;29470;53.550;9.926;2023-06-10T16:53:36;10.90;;;3.58;;
43823;SDS011;29470;53.550;9.926;2023-06-10T16:58:38;9.23;;;3.70;;
43823;SDS011;29470;53.550;9.926;2023-06-10T17:03:41;12.60;;;4.20;;
43823;SDS011;29470;53.550;9.926;2023-06-10T17:08:45;7.05;;;3.70;;
43823;SDS011;29470;53.550;9.926;2023-06-10T17:13:48;6.63;;;3.83;;
43823;SDS011;29470;53.550;9.926;2023-06-10T17:18:52;8.93;;;3.30;;
43823;SDS011;29470;53.550;9.926;2023-06-10T17:23:56;8.32;;;3.28;;
43823;SDS011;29470;53.550;9.926;2023-06-10T17:28:59;9.10;;;4.30;;
43823;SDS011;29470;53.550;9.926;2023-06-10T17:34:03;13.60;;;4.00;;
43823;SDS011;29470;53.550;9.926;2023-06-10T17:39:07;10.27;;;3.85;;
43823;SDS011;29470;53.550;9.926;2023-06-10T17:44:10;9.88;;;3.83;;
43823;SDS011;29470;53.550;9.926;2023-06-10T17:49:13;7.75;;;3.42;;
43823;SDS011;29470;53.550;9.926;2023-06-10T17:54:18;10.82;;;3.70;;
43823;SDS011;29470;53.550;9.926;2023-06-10T17:59:21;9.50;;;3.90;;
43823;SDS011;29470;53.550;9.926;2023-06-10T18:04:24;9.60;;;3.63;;
43823;SDS011;29470;53.550;9.926;2023-06-10T18:09:29;12.20;;;3.85;;
43823;SDS011;29470;53.550;9.926;2023-06-10T18:14:32;9.70;;;3.67;;
43823;SDS011;29470;53.550;9.926;2023-06-10T18:19:35;6.82;;;3.38;;
43823;SDS011;29470;53.550;9.926;2023-06-10T18:24:40;9.05;;;4.13;;
43823;SDS011;29470;53.550;9.926;2023-06-10T18:29:43;11.35;;;3.38;;
43823;SDS011;29470;53.550;9.926;2023-06-10T18:34:46;7.15;;;3.83;;
43823;SDS011;29470;53.550;9.926;2023-06-10T18:39:52;11.55;;;4.05;;
43823;SDS011;29470;53.550;9.926;2023-06-10T18:44:55;12.07;;;3.55;;
43823;SDS011;29470;53.550;9.926;2023-06-10T18:50:23;7.75;;;3.72;;
43823;SDS011;29470;53.550;9.926;2023-06-10T19:00:33;10.38;;;3.88;;
43823;SDS011;29470;53.550;9.926;2023-06-10T19:05:36;9.07;;;3.92;;
43823;SDS011;29470;53.550;9.926;2023-06-10T19:10:50;9.95;;;3.80;;
43823;SDS011;29470;53.550;9.926;2023-06-10T19:15:55;10.27;;;3.90;;
43823;SDS011;29470;53.550;9.926;2023-06-10T19:21:09;9.48;;;4.30;;
43823;SDS011;29470;53.550;9.926;2023-06-10T19:26:18;12.77;;;4.80;;
43823;SDS011;29470;53.550;9.926;2023-06-10T19:31:22;12.52;;;5.20;;
43823;SDS011;29470;53.550;9.926;2023-06-10T19:36:26;10.10;;;4.13;;
43823;SDS011;29470;53.550;9.926;2023-06-10T19:41:30;12.32;;;4.50;;
43823;SDS011;29470;53.550;9.926;2023-06-10T19:46:36;14.75;;;5.00;;
43823;SDS011;29470;53.550;9.926;2023-06-10T19:51:39;11.93;;;5.95;;
43823;SDS011;29470;53.550;9.926;2023-06-10T19:56:50;16.55;;;5.28;;
43823;SDS011;29470;53.550;9.926;2023-06-10T20:01:52;9.98;;;4.30;;
43823;SDS011;29470;53.550;9.926;2023-06-10T20:06:55;14.82;;;5.85;;
43823;SDS011;29470;53.550;9.926;2023-06-10T20:12:02;9.45;;;4.28;;
43823;SDS011;29470;53.550;9.926;2023-06-10T20:17:10;10.65;;;4.63;;
43823;SDS011;29470;53.550;9.926;2023-06-10T20:22:13;6.72;;;3.00;;
43823;SDS011;29470;53.550;9.926;2023-06-10T20:27:18;6.80;;;3.42;;
43823;SDS011;29470;53.550;9.926;2023-06-10T20:32:21;10.10;;;3.95;;
43823;SDS011;29470;53.550;9.926;2023-06-10T20:37:25;11.15;;;4.13;;
43823;SDS011;29470;53.550;9.926;2023-06-10T20:42:29;10.95;;;3.92;;
43823;SDS011;29470;53.550;9.926;2023-06-10T20:47:32;9.55;;;3.75;;
43823;SDS011;29470;53.550;9.926;2023-06-10T20:52:38;8.27;;;3.17;;
43823;SDS011;29470;53.550;9.926;2023-06-10T20:57:45;10.45;;;3.25;;
43823;SDS011;29470;53.550;9.926;2023-06-10T21:02:48;6.90;;;3.10;;
43823;SDS011;29470;53.550;9.926;2023-06-10T21:07:51;12.90;;;3.53;;
43823;SDS011;29470;53.550;9.926;2023-06-10T21:12:55;9.20;;;3.65;;
43823;SDS011;29470;53.550;9.926;2023-06-10T21:17:58;6.25;;;2.92;;
43823;SDS011;29470;53.550;9.926;2023-06-10T21:23:01;9.73;;;3.38;;
43823;SDS011;29470;53.550;9.926;2023-06-10T21:28:05;10.13;;;3.08;;
43823;SDS011;29470;53.550;9.926;2023-06-10T21:33:08;9.73;;;3.33;;
43823;SDS011;29470;53.550;9.926;2023-06-10T21:38:11;11.10;;;3.15;;
43823;SDS011;29470;53.550;9.926;2023-06-10T21:43:16;6.90;;;3.28;;
43823;SDS011;29470;53.550;9.926;2023-06-10T21:48:19;10.95;;;3.92;;
43823;SDS011;29470;53.550;9.926;2023-06-10T21:53:22;9.95;;;3.50;;
43823;SDS011;29470;53.550;9.926;2023-06-10T21:58:26;8.30;;;3.78;;
43823;SDS011;29470;53.550;9.926;2023-06-10T22:03:29;6.65;;;3.00;;
43823;SDS011;29470;53.550;9.926;2023-06-10T22:08:32;8.32;;;2.40;;
43823;SDS011;29470;53.550;9.926;2023-06-10T22:13:37;7.10;;;3.00;;
43823;SDS011;29470;53.550;9.926;2023-06-10T22:18:40;7.88;;;3.05;;
43823;SDS011;29470;53.550;9.926;2023-06-10T22:23:43;5.97;;;2.47;;
43823;SDS011;29470;53.550;9.926;2023-06-10T22:28:47;4.63;;;2.35;;
43823;SDS011;29470;53.550;9.926;2023-06-10T22:33:50;7.18;;;3.40;;
43823;SDS011;29470;53.550;9.926;2023-06-10T22:38:52;6.03;;;2.67;;
43823;SDS011;29470;53.550;9.926;2023-06-10T22:43:57;9.82;;;3.63;;
43823;SDS011;29470;53.550;9.926;2023-06-10T22:48:59;4.47;;;2.65;;
43823;SDS011;29470;53.550;9.926;2023-06-10T22:54:02;7.70;;;2.80;;
43823;SDS011;29470;53.550;9.926;2023-06-10T22:59:08;4.90;;;2.30;;
43823;SDS011;29470;53.550;9.926;2023-06-10T23:04:11;6.07;;;2.38;;
43823;SDS011;29470;53.550;9.926;2023-06-10T23:09:14;6.18;;;2.45;;
43823;SDS011;29470;53.550;9.926;2023-06-10T23:14:18;6.95;;;1.98;;
43823;SDS011;29470;53.550;9.926;2023-06-10T23:19:21;7.00;;;2.08;;
43823;SDS011;29470;53.550;9.926;2023-06-10T23:24:24;9.23;;;1.90;;
43823;SDS011;29470;53.550;9.926;2023-06-10T23:29:31;6.53;;;2.35;;
43823;SDS011;29470;53.550;9.926;2023-06-10T23:34:42;5.80;;;2.13;;
43823;SDS011;29470;53.550;9.926;2023-06-10T23:39:45;4.95;;;1.90;;
43823;SDS011;29470;53.550;9.926;2023-06-10T23:44:51;7.07;;;2.03;;
43823;SDS011;29470;53.550;9.926;2023-06-10T23:49:54;4.18;;;1.58;;
43823;SDS011;29470;53.550;9.926;2023-06-10T23:54:56;5.05;;;2.00;;
